sensor_id;sensor_type;location;lat;lon;timestamp;P1;durP1;ratioP1;P2;durP2;ratioP2
28834;SDS011;15969;51.536;11.884;2023-01-13T00:01:19;0.30;;;0.20;;
28834;SDS011;15969;51.536;11.884;2023-01-13T00:03:47;0.60;;;0.40;;
28834;SDS011;15969;51.536;11.884;2023-01-13T00:06:14;0.60;;;0.40;;
28834;SDS011;15969;51.536;11.884;2023-01-13T00:08:43;0.50;;;0.27;;
28834;SDS011;15969;51.536;11.884;2023-01-13T00:11:12;0.77;;;0.33;;
28834;SDS011;15969;51.536;11.884;2023-01-13T00:13:38;0.33;;;0.20;;
28834;SDS011;15969;51.536;11.884;2023-01-13T00:16:04;0.30;;;0.13;;
28834;SDS011;15969;51.536;11.884;2023-01-13T00:18:32;0.37;;;0.20;;
28834;SDS011;15969;51.536;11.884;2023-01-13T00:23:32;0.50;;;0.20;;
28834;SDS011;15969;51.536;11.884;2023-01-13T00:26:00;0.60;;;0.20;;
28834;SDS011;15969;51.536;11.884;2023-01-13T00:28:32;0.40;;;0.30;;
28834;SDS011;15969;51.536;11.884;2023-01-13T00:31:05;0.40;;;0.23;;
28834;SDS011;15969;51.536;11.884;2023-01-13T00:33:35;0.50;;;0.37;;
28834;SDS011;15969;51.536;11.884;2023-01-13T00:36:02;2.70;;;0.30;;
28834;SDS011;15969;51.536;11.884;2023-01-13T00:38:29;0.40;;;0.30;;
28834;SDS011;15969;51.536;11.884;2023-01-13T00:43:27;0.40;;;0.27;;
28834;SDS011;15969;51.536;11.884;2023-01-13T00:45:57;0.47;;;0.30;;
28834;SDS011;15969;51.536;11.884;2023-01-13T00:48:24;1.23;;;0.30;;
28834;SDS011;15969;51.536;11.884;2023-01-13T00:50:57;0.60;;;0.30;;
28834;SDS011;15969;51.536;11.884;2023-01-13T00:53:33;0.33;;;0.20;;
28834;SDS011;15969;51.536;11.884;2023-01-13T00:56:03;0.37;;;0.23;;
28834;SDS011;15969;51.536;11.884;2023-01-13T00:58:38;0.83;;;0.40;;
28834;SDS011;15969;51.536;11.884;2023-01-13T01:01:06;1.33;;;0.33;;
28834;SDS011;15969;51.536;11.884;2023-01-13T01:03:34;0.77;;;0.30;;
28834;SDS011;15969;51.536;11.884;2023-01-13T01:06:05;0.60;;;0.40;;
28834;SDS011;15969;51.536;11.884;2023-01-13T01:08:39;0.80;;;0.40;;
28834;SDS011;15969;51.536;11.884;2023-01-13T01:11:07;0.40;;;0.20;;
28834;SDS011;15969;51.536;11.884;2023-01-13T01:13:36;1.47;;;0.40;;
28834;SDS011;15969;51.536;11.884;2023-01-13T01:16:09;0.93;;;0.40;;
28834;SDS011;15969;51.536;11.884;2023-01-13T01:18:39;1.10;;;0.57;;
28834;SDS011;15969;51.536;11.884;2023-01-13T01:21:07;0.53;;;0.30;;
28834;SDS011;15969;51.536;11.884;2023-01-13T01:23:35;1.77;;;0.50;;
28834;SDS011;15969;51.536;11.884;2023-01-13T01:26:03;0.30;;;0.20;;
28834;SDS011;15969;51.536;11.884;2023-01-13T01:28:33;0.80;;;0.37;;
28834;SDS011;15969;51.536;11.884;2023-01-13T01:30:59;0.30;;;0.23;;
28834;SDS011;15969;51.536;11.884;2023-01-13T01:33:30;0.30;;;0.20;;
28834;SDS011;15969;51.536;11.884;2023-01-13T01:35:56;0.40;;;0.30;;
28834;SDS011;15969;51.536;11.884;2023-01-13T01:38:22;2.00;;;0.50;;
28834;SDS011;15969;51.536;11.884;2023-01-13T01:40:47;0.40;;;0.30;;
28834;SDS011;15969;51.536;11.884;2023-01-13T01:43:14;0.37;;;0.20;;
28834;SDS011;15969;51.536;11.884;2023-01-13T01:46:01;0.73;;;0.33;;
28834;SDS011;15969;51.536;11.884;2023-01-13T01:48:27;1.03;;;0.30;;
28834;SDS011;15969;51.536;11.884;2023-01-13T01:51:00;0.53;;;0.40;;
28834;SDS011;15969;51.536;11.884;2023-01-13T01:53:26;0.43;;;0.23;;
28834;SDS011;15969;51.536;11.884;2023-01-13T01:55:55;0.40;;;0.30;;
28834;SDS011;15969;51.536;11.884;2023-01-13T01:58:34;0.70;;;0.30;;
28834;SDS011;15969;51.536;11.884;2023-01-13T02:01:09;0.37;;;0.20;;
28834;SDS011;15969;51.536;11.884;2023-01-13T02:03:36;0.30;;;0.10;;
28834;SDS011;15969;51.536;11.884;2023-01-13T02:06:07;0.50;;;0.20;;
28834;SDS011;15969;51.536;11.884;2023-01-13T02:08:33;0.60;;;0.30;;
28834;SDS011;15969;51.536;11.884;2023-01-13T02:11:01;0.60;;;0.30;;
28834;SDS011;15969;51.536;11.884;2023-01-13T02:13:27;0.47;;;0.27;;
28834;SDS011;15969;51.536;11.884;2023-01-13T02:16:02;1.47;;;0.40;;
28834;SDS011;15969;51.536;11.884;2023-01-13T02:18:55;1.03;;;0.40;;
28834;SDS011;15969;51.536;11.884;2023-01-13T02:33:30;0.30;;;0.20;;
28834;SDS011;15969;51.536;11.884;2023-01-13T02:36:41;0.80;;;0.20;;
28834;SDS011;15969;51.536;11.884;2023-01-13T02:39:24;0.37;;;0.20;;
28834;SDS011;15969;51.536;11.884;2023-01-13T02:42:02;0.47;;;0.20;;
28834;SDS011;15969;51.536;11.884;2023-01-13T02:47:38;0.50;;;0.20;;
28834;SDS011;15969;51.536;11.884;2023-01-13T02:50:10;0.80;;;0.30;;
28834;SDS011;15969;51.536;11.884;2023-01-13T02:52:45;1.83;;;0.30;;
28834;SDS011;15969;51.536;11.884;2023-01-13T02:55:25;0.40;;;0.20;;
28834;SDS011;15969;51.536;11.884;2023-01-13T02:58:02;0.33;;;0.20;;
28834;SDS011;15969;51.536;11.884;2023-01-13T03:00:31;0.40;;;0.20;;
28834;SDS011;15969;51.536;11.884;2023-01-13T03:02:57;0.30;;;0.20;;
28834;SDS011;15969;51.536;11.884;2023-01-13T03:05:24;0.37;;;0.30;;
28834;SDS011;15969;51.536;11.884;2023-01-13T03:10:44;0.43;;;0.30;;
28834;SDS011;15969;51.536;11.884;2023-01-13T03:16:51;0.60;;;0.20;;
28834;SDS011;15969;51.536;11.884;2023-01-13T03:22:11;1.13;;;0.30;;
28834;SDS011;15969;51.536;11.884;2023-01-13T03:25:17;0.50;;;0.23;;
28834;SDS011;15969;51.536;11.884;2023-01-13T03:28:03;0.60;;;0.37;;
28834;SDS011;15969;51.536;11.884;2023-01-13T03:30:43;0.37;;;0.10;;
28834;SDS011;15969;51.536;11.884;2023-01-13T03:33:20;0.30;;;0.20;;
28834;SDS011;15969;51.536;11.884;2023-01-13T03:35:54;2.93;;;0.73;;
28834;SDS011;15969;51.536;11.884;2023-01-13T03:38:33;0.33;;;0.20;;
28834;SDS011;15969;51.536;11.884;2023-01-13T03:41:13;0.50;;;0.20;;
28834;SDS011;15969;51.536;11.884;2023-01-13T03:43:51;0.93;;;0.20;;
28834;SDS011;15969;51.536;11.884;2023-01-13T03:46:56;1.47;;;0.30;;
28834;SDS011;15969;51.536;11.884;2023-01-13T03:49:48;0.60;;;0.30;;
28834;SDS011;15969;51.536;11.884;2023-01-13T03:52:24;0.50;;;0.30;;
28834;SDS011;15969;51.536;11.884;2023-01-13T03:55:01;0.30;;;0.10;;
28834;SDS011;15969;51.536;11.884;2023-01-13T03:57:34;0.40;;;0.20;;
28834;SDS011;15969;51.536;11.884;2023-01-13T04:00:06;0.30;;;0.20;;
28834;SDS011;15969;51.536;11.884;2023-01-13T04:02:41;0.67;;;0.33;;
28834;SDS011;15969;51.536;11.884;2023-01-13T04:05:12;1.73;;;0.20;;
28834;SDS011;15969;51.536;11.884;2023-01-13T04:07:49;0.40;;;0.30;;
28834;SDS011;15969;51.536;11.884;2023-01-13T04:10:27;0.60;;;0.13;;
28834;SDS011;15969;51.536;11.884;2023-01-13T04:13:12;0.53;;;0.20;;
28834;SDS011;15969;51.536;11.884;2023-01-13T04:15:43;0.30;;;0.30;;
28834;SDS011;15969;51.536;11.884;2023-01-13T04:18:20;0.40;;;0.20;;
28834;SDS011;15969;51.536;11.884;2023-01-13T04:20:55;1.17;;;0.40;;
28834;SDS011;15969;51.536;11.884;2023-01-13T04:23:24;0.83;;;0.30;;
28834;SDS011;15969;51.536;11.884;2023-01-13T04:25:51;0.80;;;0.27;;
28834;SDS011;15969;51.536;11.884;2023-01-13T04:28:18;2.07;;;0.30;;
28834;SDS011;15969;51.536;11.884;2023-01-13T04:30:44;0.80;;;0.30;;
28834;SDS011;15969;51.536;11.884;2023-01-13T04:33:10;1.30;;;0.30;;
28834;SDS011;15969;51.536;11.884;2023-01-13T04:35:37;0.70;;;0.30;;
28834;SDS011;15969;51.536;11.884;2023-01-13T04:38:04;0.50;;;0.30;;
28834;SDS011;15969;51.536;11.884;2023-01-13T04:40:38;1.13;;;0.30;;
28834;SDS011;15969;51.536;11.884;2023-01-13T04:43:05;0.30;;;0.20;;
28834;SDS011;15969;51.536;11.884;2023-01-13T04:45:30;0.70;;;0.30;;
28834;SDS011;15969;51.536;11.884;2023-01-13T04:47:56;0.83;;;0.30;;
28834;SDS011;15969;51.536;11.884;2023-01-13T04:50:22;0.60;;;0.40;;
28834;SDS011;15969;51.536;11.884;2023-01-13T04:52:48;0.50;;;0.30;;
28834;SDS011;15969;51.536;11.884;2023-01-13T04:55:15;2.00;;;0.40;;
28834;SDS011;15969;51.536;11.884;2023-01-13T04:57:41;1.13;;;0.40;;
28834;SDS011;15969;51.536;11.884;2023-01-13T05:00:08;0.40;;;0.30;;
28834;SDS011;15969;51.536;11.884;2023-01-13T05:02:36;0.30;;;0.30;;
28834;SDS011;15969;51.536;11.884;2023-01-13T05:05:02;0.50;;;0.10;;
28834;SDS011;15969;51.536;11.884;2023-01-13T05:07:28;1.00;;;0.40;;
28834;SDS011;15969;51.536;11.884;2023-01-13T05:09:54;1.33;;;0.40;;
28834;SDS011;15969;51.536;11.884;2023-01-13T05:12:19;0.33;;;0.30;;
28834;SDS011;15969;51.536;11.884;2023-01-13T05:15:04;0.50;;;0.20;;
28834;SDS011;15969;51.536;11.884;2023-01-13T05:17:49;0.87;;;0.43;;
28834;SDS011;15969;51.536;11.884;2023-01-13T05:20:15;0.90;;;0.40;;
28834;SDS011;15969;51.536;11.884;2023-01-13T05:22:42;0.43;;;0.20;;
28834;SDS011;15969;51.536;11.884;2023-01-13T05:25:26;1.23;;;0.20;;
28834;SDS011;15969;51.536;11.884;2023-01-13T05:27:53;0.97;;;0.30;;
28834;SDS011;15969;51.536;11.884;2023-01-13T05:30:21;0.30;;;0.20;;
28834;SDS011;15969;51.536;11.884;2023-01-13T05:32:56;0.53;;;0.30;;
28834;SDS011;15969;51.536;11.884;2023-01-13T05:35:22;1.03;;;0.40;;
28834;SDS011;15969;51.536;11.884;2023-01-13T05:37:48;1.83;;;0.30;;
28834;SDS011;15969;51.536;11.884;2023-01-13T05:40:15;0.80;;;0.40;;
28834;SDS011;15969;51.536;11.884;2023-01-13T05:43:11;1.03;;;0.40;;
28834;SDS011;15969;51.536;11.884;2023-01-13T05:48:25;2.10;;;1.00;;
28834;SDS011;15969;51.536;11.884;2023-01-13T05:50:53;2.73;;;0.60;;
28834;SDS011;15969;51.536;11.884;2023-01-13T05:53:19;2.10;;;0.67;;
28834;SDS011;15969;51.536;11.884;2023-01-13T05:55:46;0.83;;;0.40;;
28834;SDS011;15969;51.536;11.884;2023-01-13T05:58:12;1.00;;;0.37;;
28834;SDS011;15969;51.536;11.884;2023-01-13T06:00:40;0.70;;;0.43;;
28834;SDS011;15969;51.536;11.884;2023-01-13T06:03:06;0.60;;;0.30;;
28834;SDS011;15969;51.536;11.884;2023-01-13T06:05:33;0.40;;;0.30;;
28834;SDS011;15969;51.536;11.884;2023-01-13T06:07:59;1.67;;;0.50;;
28834;SDS011;15969;51.536;11.884;2023-01-13T06:10:27;1.13;;;0.40;;
28834;SDS011;15969;51.536;11.884;2023-01-13T06:12:53;2.17;;;0.90;;
28834;SDS011;15969;51.536;11.884;2023-01-13T06:15:20;1.33;;;0.70;;
28834;SDS011;15969;51.536;11.884;2023-01-13T06:17:46;6.17;;;0.60;;
28834;SDS011;15969;51.536;11.884;2023-01-13T06:20:12;1.27;;;0.50;;
28834;SDS011;15969;51.536;11.884;2023-01-13T06:22:39;1.83;;;0.30;;
28834;SDS011;15969;51.536;11.884;2023-01-13T06:25:09;1.33;;;0.50;;
28834;SDS011;15969;51.536;11.884;2023-01-13T06:27:53;1.50;;;0.40;;
28834;SDS011;15969;51.536;11.884;2023-01-13T06:30:22;1.60;;;0.33;;
28834;SDS011;15969;51.536;11.884;2023-01-13T06:32:51;0.87;;;0.30;;
28834;SDS011;15969;51.536;11.884;2023-01-13T06:35:20;0.47;;;0.30;;
28834;SDS011;15969;51.536;11.884;2023-01-13T06:37:53;0.40;;;0.30;;
28834;SDS011;15969;51.536;11.884;2023-01-13T06:40:20;1.33;;;0.50;;
28834;SDS011;15969;51.536;11.884;2023-01-13T06:42:47;2.30;;;0.30;;
28834;SDS011;15969;51.536;11.884;2023-01-13T06:45:31;1.80;;;0.40;;
28834;SDS011;15969;51.536;11.884;2023-01-13T06:47:57;1.87;;;0.53;;
28834;SDS011;15969;51.536;11.884;2023-01-13T06:50:24;1.40;;;0.40;;
28834;SDS011;15969;51.536;11.884;2023-01-13T06:52:50;0.80;;;0.20;;
28834;SDS011;15969;51.536;11.884;2023-01-13T06:55:16;0.87;;;0.40;;
28834;SDS011;15969;51.536;11.884;2023-01-13T07:00:20;0.40;;;0.30;;
28834;SDS011;15969;51.536;11.884;2023-01-13T07:02:48;1.33;;;0.40;;
28834;SDS011;15969;51.536;11.884;2023-01-13T07:05:14;1.27;;;0.43;;
28834;SDS011;15969;51.536;11.884;2023-01-13T07:07:41;1.53;;;0.43;;
28834;SDS011;15969;51.536;11.884;2023-01-13T07:10:07;1.10;;;0.40;;
28834;SDS011;15969;51.536;11.884;2023-01-13T07:12:37;0.57;;;0.40;;
28834;SDS011;15969;51.536;11.884;2023-01-13T07:15:22;1.60;;;0.40;;
28834;SDS011;15969;51.536;11.884;2023-01-13T07:17:49;0.97;;;0.40;;
28834;SDS011;15969;51.536;11.884;2023-01-13T07:20:15;2.13;;;0.47;;
28834;SDS011;15969;51.536;11.884;2023-01-13T07:22:41;1.27;;;0.30;;
28834;SDS011;15969;51.536;11.884;2023-01-13T07:25:08;1.60;;;0.40;;
28834;SDS011;15969;51.536;11.884;2023-01-13T07:27:34;0.90;;;0.30;;
28834;SDS011;15969;51.536;11.884;2023-01-13T07:30:00;0.77;;;0.30;;
28834;SDS011;15969;51.536;11.884;2023-01-13T07:32:26;3.13;;;0.40;;
28834;SDS011;15969;51.536;11.884;2023-01-13T07:34:52;1.77;;;0.23;;
28834;SDS011;15969;51.536;11.884;2023-01-13T07:37:17;0.60;;;0.30;;
28834;SDS011;15969;51.536;11.884;2023-01-13T07:39:43;0.80;;;0.20;;
28834;SDS011;15969;51.536;11.884;2023-01-13T07:42:10;0.40;;;0.30;;
28834;SDS011;15969;51.536;11.884;2023-01-13T07:44:54;1.50;;;0.40;;
28834;SDS011;15969;51.536;11.884;2023-01-13T07:47:20;0.97;;;0.30;;
28834;SDS011;15969;51.536;11.884;2023-01-13T07:49:47;0.53;;;0.30;;
28834;SDS011;15969;51.536;11.884;2023-01-13T07:52:13;1.33;;;0.30;;
28834;SDS011;15969;51.536;11.884;2023-01-13T07:54:39;3.10;;;0.70;;
28834;SDS011;15969;51.536;11.884;2023-01-13T07:57:05;1.23;;;0.40;;
28834;SDS011;15969;51.536;11.884;2023-01-13T07:59:30;0.50;;;0.30;;
28834;SDS011;15969;51.536;11.884;2023-01-13T08:01:56;1.80;;;0.57;;
28834;SDS011;15969;51.536;11.884;2023-01-13T08:04:22;2.80;;;0.40;;
28834;SDS011;15969;51.536;11.884;2023-01-13T08:06:47;1.00;;;0.50;;
28834;SDS011;15969;51.536;11.884;2023-01-13T08:09:13;2.43;;;0.60;;
28834;SDS011;15969;51.536;11.884;2023-01-13T08:11:39;1.93;;;0.60;;
28834;SDS011;15969;51.536;11.884;2023-01-13T08:14:04;1.33;;;0.73;;
28834;SDS011;15969;51.536;11.884;2023-01-13T08:16:31;0.70;;;0.30;;
28834;SDS011;15969;51.536;11.884;2023-01-13T08:18:58;2.73;;;0.53;;
28834;SDS011;15969;51.536;11.884;2023-01-13T08:21:23;0.93;;;0.40;;
28834;SDS011;15969;51.536;11.884;2023-01-13T08:23:49;0.97;;;0.30;;
28834;SDS011;15969;51.536;11.884;2023-01-13T08:26:16;1.33;;;0.50;;
28834;SDS011;15969;51.536;11.884;2023-01-13T08:28:42;1.27;;;0.40;;
28834;SDS011;15969;51.536;11.884;2023-01-13T08:31:09;0.77;;;0.40;;
28834;SDS011;15969;51.536;11.884;2023-01-13T08:33:43;0.70;;;0.40;;
28834;SDS011;15969;51.536;11.884;2023-01-13T08:36:09;0.53;;;0.33;;
28834;SDS011;15969;51.536;11.884;2023-01-13T08:38:38;2.10;;;0.40;;
28834;SDS011;15969;51.536;11.884;2023-01-13T08:41:09;4.33;;;0.80;;
28834;SDS011;15969;51.536;11.884;2023-01-13T08:43:37;2.97;;;0.40;;
28834;SDS011;15969;51.536;11.884;2023-01-13T08:46:02;2.30;;;0.60;;
28834;SDS011;15969;51.536;11.884;2023-01-13T08:48:28;1.93;;;0.43;;
28834;SDS011;15969;51.536;11.884;2023-01-13T08:50:59;2.17;;;0.60;;
28834;SDS011;15969;51.536;11.884;2023-01-13T08:53:30;2.10;;;0.60;;
28834;SDS011;15969;51.536;11.884;2023-01-13T08:55:56;1.60;;;0.60;;
28834;SDS011;15969;51.536;11.884;2023-01-13T08:58:21;1.50;;;0.47;;
28834;SDS011;15969;51.536;11.884;2023-01-13T09:00:47;2.37;;;0.80;;
28834;SDS011;15969;51.536;11.884;2023-01-13T09:03:13;1.50;;;0.60;;
28834;SDS011;15969;51.536;11.884;2023-01-13T09:05:38;1.83;;;0.60;;
28834;SDS011;15969;51.536;11.884;2023-01-13T09:08:04;2.73;;;0.67;;
28834;SDS011;15969;51.536;11.884;2023-01-13T09:10:29;3.50;;;0.97;;
28834;SDS011;15969;51.536;11.884;2023-01-13T09:12:56;2.03;;;0.53;;
28834;SDS011;15969;51.536;11.884;2023-01-13T09:15:37;1.47;;;0.50;;
28834;SDS011;15969;51.536;11.884;2023-01-13T09:18:09;0.97;;;0.33;;
28834;SDS011;15969;51.536;11.884;2023-01-13T09:20:36;2.93;;;0.57;;
28834;SDS011;15969;51.536;11.884;2023-01-13T09:23:02;1.07;;;0.50;;
28834;SDS011;15969;51.536;11.884;2023-01-13T09:25:29;2.90;;;0.50;;
28834;SDS011;15969;51.536;11.884;2023-01-13T09:27:55;1.73;;;0.60;;
28834;SDS011;15969;51.536;11.884;2023-01-13T09:30:21;1.57;;;0.50;;
28834;SDS011;15969;51.536;11.884;2023-01-13T09:32:47;2.00;;;0.60;;
28834;SDS011;15969;51.536;11.884;2023-01-13T09:35:12;2.10;;;0.50;;
28834;SDS011;15969;51.536;11.884;2023-01-13T09:37:39;0.80;;;0.50;;
28834;SDS011;15969;51.536;11.884;2023-01-13T09:40:06;1.53;;;0.47;;
28834;SDS011;15969;51.536;11.884;2023-01-13T09:42:42;1.57;;;0.40;;
28834;SDS011;15969;51.536;11.884;2023-01-13T09:45:37;0.77;;;0.37;;
28834;SDS011;15969;51.536;11.884;2023-01-13T09:50:57;2.10;;;0.60;;
28834;SDS011;15969;51.536;11.884;2023-01-13T09:53:47;1.90;;;0.90;;
28834;SDS011;15969;51.536;11.884;2023-01-13T09:56:19;1.83;;;0.40;;
28834;SDS011;15969;51.536;11.884;2023-01-13T09:58:47;2.63;;;0.70;;
28834;SDS011;15969;51.536;11.884;2023-01-13T10:01:32;1.93;;;0.67;;
28834;SDS011;15969;51.536;11.884;2023-01-13T10:04:12;1.37;;;0.50;;
28834;SDS011;15969;51.536;11.884;2023-01-13T10:06:39;4.57;;;0.50;;
28834;SDS011;15969;51.536;11.884;2023-01-13T10:09:18;3.00;;;0.67;;
28834;SDS011;15969;51.536;11.884;2023-01-13T10:12:04;1.60;;;0.40;;
28834;SDS011;15969;51.536;11.884;2023-01-13T10:15:01;4.93;;;0.80;;
28834;SDS011;15969;51.536;11.884;2023-01-13T10:17:39;1.70;;;0.67;;
28834;SDS011;15969;51.536;11.884;2023-01-13T10:20:39;1.93;;;0.63;;
28834;SDS011;15969;51.536;11.884;2023-01-13T10:23:49;1.97;;;0.60;;
28834;SDS011;15969;51.536;11.884;2023-01-13T10:26:32;1.47;;;0.67;;
28834;SDS011;15969;51.536;11.884;2023-01-13T10:29:27;2.57;;;0.70;;
28834;SDS011;15969;51.536;11.884;2023-01-13T10:31:54;1.20;;;0.60;;
28834;SDS011;15969;51.536;11.884;2023-01-13T10:34:22;2.60;;;0.50;;
28834;SDS011;15969;51.536;11.884;2023-01-13T10:36:56;3.93;;;0.70;;
28834;SDS011;15969;51.536;11.884;2023-01-13T10:39:42;2.53;;;1.17;;
28834;SDS011;15969;51.536;11.884;2023-01-13T10:42:14;2.80;;;0.80;;
28834;SDS011;15969;51.536;11.884;2023-01-13T10:44:45;2.87;;;0.70;;
28834;SDS011;15969;51.536;11.884;2023-01-13T10:50:16;2.40;;;0.50;;
28834;SDS011;15969;51.536;11.884;2023-01-13T10:52:55;5.03;;;0.80;;
28834;SDS011;15969;51.536;11.884;2023-01-13T10:55:31;4.90;;;1.17;;
28834;SDS011;15969;51.536;11.884;2023-01-13T10:58:13;2.20;;;0.67;;
28834;SDS011;15969;51.536;11.884;2023-01-13T11:00:43;2.23;;;0.83;;
28834;SDS011;15969;51.536;11.884;2023-01-13T11:05:48;2.63;;;0.83;;
28834;SDS011;15969;51.536;11.884;2023-01-13T11:08:17;1.87;;;0.63;;
28834;SDS011;15969;51.536;11.884;2023-01-13T11:10:48;4.30;;;1.07;;
28834;SDS011;15969;51.536;11.884;2023-01-13T11:13:24;2.77;;;0.60;;
28834;SDS011;15969;51.536;11.884;2023-01-13T11:18:39;3.80;;;0.70;;
28834;SDS011;15969;51.536;11.884;2023-01-13T11:27:16;4.50;;;1.27;;
28834;SDS011;15969;51.536;11.884;2023-01-13T11:32:42;2.93;;;0.93;;
28834;SDS011;15969;51.536;11.884;2023-01-13T11:35:39;4.33;;;1.10;;
28834;SDS011;15969;51.536;11.884;2023-01-13T11:38:22;4.50;;;1.03;;
28834;SDS011;15969;51.536;11.884;2023-01-13T11:40:59;3.73;;;0.93;;
28834;SDS011;15969;51.536;11.884;2023-01-13T11:43:45;2.80;;;0.70;;
28834;SDS011;15969;51.536;11.884;2023-01-13T11:46:20;4.10;;;1.10;;
28834;SDS011;15969;51.536;11.884;2023-01-13T11:48:50;2.53;;;0.73;;
28834;SDS011;15969;51.536;11.884;2023-01-13T11:51:35;5.23;;;1.00;;
28834;SDS011;15969;51.536;11.884;2023-01-13T11:57:14;3.30;;;0.77;;
28834;SDS011;15969;51.536;11.884;2023-01-13T12:08:59;5.00;;;1.13;;
28834;SDS011;15969;51.536;11.884;2023-01-13T12:11:37;6.77;;;0.93;;
28834;SDS011;15969;51.536;11.884;2023-01-13T12:17:44;3.00;;;0.73;;
28834;SDS011;15969;51.536;11.884;2023-01-13T12:23:28;3.93;;;0.90;;
28834;SDS011;15969;51.536;11.884;2023-01-13T12:26:00;4.07;;;1.10;;
28834;SDS011;15969;51.536;11.884;2023-01-13T12:28:48;3.80;;;0.90;;
28834;SDS011;15969;51.536;11.884;2023-01-13T12:31:21;3.97;;;1.27;;
28834;SDS011;15969;51.536;11.884;2023-01-13T12:43:03;2.33;;;1.10;;
28834;SDS011;15969;51.536;11.884;2023-01-13T12:51:26;4.23;;;0.70;;
28834;SDS011;15969;51.536;11.884;2023-01-13T12:53:57;1.83;;;0.53;;
28834;SDS011;15969;51.536;11.884;2023-01-13T12:56:28;1.70;;;0.87;;
28834;SDS011;15969;51.536;11.884;2023-01-13T13:01:44;4.30;;;1.00;;
28834;SDS011;15969;51.536;11.884;2023-01-13T13:04:41;1.80;;;0.73;;
28834;SDS011;15969;51.536;11.884;2023-01-13T13:12:52;2.63;;;0.97;;
28834;SDS011;15969;51.536;11.884;2023-01-13T13:15:42;4.47;;;0.80;;
28834;SDS011;15969;51.536;11.884;2023-01-13T13:21:01;2.97;;;1.23;;
28834;SDS011;15969;51.536;11.884;2023-01-13T13:23:28;3.40;;;0.97;;
28834;SDS011;15969;51.536;11.884;2023-01-13T13:29:06;4.73;;;1.40;;
28834;SDS011;15969;51.536;11.884;2023-01-13T13:32:19;2.27;;;0.93;;
28834;SDS011;15969;51.536;11.884;2023-01-13T13:38:14;2.37;;;0.70;;
28834;SDS011;15969;51.536;11.884;2023-01-13T13:41:27;2.40;;;0.70;;
28834;SDS011;15969;51.536;11.884;2023-01-13T13:44:24;1.97;;;0.80;;
28834;SDS011;15969;51.536;11.884;2023-01-13T13:47:13;1.90;;;0.80;;
28834;SDS011;15969;51.536;11.884;2023-01-13T13:49:40;3.07;;;0.97;;
28834;SDS011;15969;51.536;11.884;2023-01-13T13:52:20;3.03;;;0.70;;
28834;SDS011;15969;51.536;11.884;2023-01-13T13:55:14;3.10;;;0.90;;
28834;SDS011;15969;51.536;11.884;2023-01-13T13:57:44;1.37;;;0.90;;
28834;SDS011;15969;51.536;11.884;2023-01-13T14:02:39;3.30;;;0.90;;
28834;SDS011;15969;51.536;11.884;2023-01-13T14:07:49;2.27;;;0.90;;
28834;SDS011;15969;51.536;11.884;2023-01-13T14:10:27;4.30;;;1.23;;
28834;SDS011;15969;51.536;11.884;2023-01-13T14:15:58;4.10;;;1.00;;
28834;SDS011;15969;51.536;11.884;2023-01-13T14:18:27;3.57;;;1.00;;
28834;SDS011;15969;51.536;11.884;2023-01-13T14:21:03;2.53;;;1.00;;
28834;SDS011;15969;51.536;11.884;2023-01-13T14:24:02;3.17;;;1.13;;
28834;SDS011;15969;51.536;11.884;2023-01-13T14:26:39;3.30;;;1.10;;
28834;SDS011;15969;51.536;11.884;2023-01-13T14:29:05;6.43;;;1.07;;
28834;SDS011;15969;51.536;11.884;2023-01-13T14:31:31;4.23;;;0.93;;
28834;SDS011;15969;51.536;11.884;2023-01-13T14:33:59;4.30;;;1.47;;
28834;SDS011;15969;51.536;11.884;2023-01-13T14:41:27;4.60;;;1.30;;
28834;SDS011;15969;51.536;11.884;2023-01-13T14:43:57;3.60;;;1.10;;
28834;SDS011;15969;51.536;11.884;2023-01-13T14:46:44;5.77;;;1.93;;
28834;SDS011;15969;51.536;11.884;2023-01-13T14:51:49;4.73;;;1.50;;
28834;SDS011;15969;51.536;11.884;2023-01-13T14:59:49;3.73;;;1.33;;
28834;SDS011;15969;51.536;11.884;2023-01-13T15:07:50;4.93;;;1.70;;
28834;SDS011;15969;51.536;11.884;2023-01-13T15:15:54;5.93;;;1.83;;
28834;SDS011;15969;51.536;11.884;2023-01-13T15:18:23;5.00;;;1.50;;
28834;SDS011;15969;51.536;11.884;2023-01-13T15:20:49;4.43;;;1.17;;
28834;SDS011;15969;51.536;11.884;2023-01-13T15:23:17;5.53;;;1.47;;
28834;SDS011;15969;51.536;11.884;2023-01-13T15:25:44;5.43;;;1.40;;
28834;SDS011;15969;51.536;11.884;2023-01-13T15:30:46;2.93;;;1.40;;
28834;SDS011;15969;51.536;11.884;2023-01-13T15:33:13;7.73;;;1.70;;
28834;SDS011;15969;51.536;11.884;2023-01-13T15:35:41;4.97;;;1.10;;
28834;SDS011;15969;51.536;11.884;2023-01-13T15:38:11;6.93;;;1.63;;
28834;SDS011;15969;51.536;11.884;2023-01-13T15:40:40;4.13;;;1.40;;
28834;SDS011;15969;51.536;11.884;2023-01-13T15:43:10;5.90;;;1.50;;
28834;SDS011;15969;51.536;11.884;2023-01-13T15:45:57;3.83;;;1.30;;
28834;SDS011;15969;51.536;11.884;2023-01-13T15:49:04;5.63;;;1.37;;
28834;SDS011;15969;51.536;11.884;2023-01-13T15:51:45;4.27;;;1.23;;
28834;SDS011;15969;51.536;11.884;2023-01-13T15:54:12;5.50;;;1.57;;
28834;SDS011;15969;51.536;11.884;2023-01-13T15:56:38;4.70;;;1.50;;
28834;SDS011;15969;51.536;11.884;2023-01-13T15:59:08;7.67;;;1.33;;
28834;SDS011;15969;51.536;11.884;2023-01-13T16:01:41;8.97;;;1.70;;
28834;SDS011;15969;51.536;11.884;2023-01-13T16:04:07;8.23;;;1.63;;
28834;SDS011;15969;51.536;11.884;2023-01-13T16:06:34;6.73;;;1.80;;
28834;SDS011;15969;51.536;11.884;2023-01-13T16:09:01;9.13;;;1.97;;
28834;SDS011;15969;51.536;11.884;2023-01-13T16:11:28;5.37;;;1.43;;
28834;SDS011;15969;51.536;11.884;2023-01-13T16:13:54;5.40;;;1.30;;
28834;SDS011;15969;51.536;11.884;2023-01-13T16:16:21;5.83;;;1.60;;
28834;SDS011;15969;51.536;11.884;2023-01-13T16:18:50;6.33;;;1.80;;
28834;SDS011;15969;51.536;11.884;2023-01-13T16:21:17;3.67;;;1.40;;
28834;SDS011;15969;51.536;11.884;2023-01-13T16:23:45;6.07;;;1.53;;
28834;SDS011;15969;51.536;11.884;2023-01-13T16:26:19;4.63;;;1.50;;
28834;SDS011;15969;51.536;11.884;2023-01-13T16:28:49;4.90;;;1.60;;
28834;SDS011;15969;51.536;11.884;2023-01-13T16:31:24;7.60;;;1.87;;
28834;SDS011;15969;51.536;11.884;2023-01-13T16:33:56;6.40;;;2.27;;
28834;SDS011;15969;51.536;11.884;2023-01-13T16:36:23;5.60;;;1.63;;
28834;SDS011;15969;51.536;11.884;2023-01-13T16:38:49;7.33;;;2.03;;
28834;SDS011;15969;51.536;11.884;2023-01-13T16:41:16;6.37;;;1.73;;
28834;SDS011;15969;51.536;11.884;2023-01-13T16:43:44;6.07;;;1.80;;
28834;SDS011;15969;51.536;11.884;2023-01-13T16:48:45;4.43;;;1.47;;
28834;SDS011;15969;51.536;11.884;2023-01-13T16:51:11;4.43;;;1.60;;
28834;SDS011;15969;51.536;11.884;2023-01-13T16:53:37;6.33;;;1.50;;
28834;SDS011;15969;51.536;11.884;2023-01-13T16:56:04;6.90;;;1.77;;
28834;SDS011;15969;51.536;11.884;2023-01-13T16:58:59;8.17;;;2.10;;
28834;SDS011;15969;51.536;11.884;2023-01-13T17:01:36;5.03;;;1.60;;
28834;SDS011;15969;51.536;11.884;2023-01-13T17:04:04;5.17;;;1.77;;
28834;SDS011;15969;51.536;11.884;2023-01-13T17:06:31;3.97;;;1.10;;
28834;SDS011;15969;51.536;11.884;2023-01-13T17:09:25;9.37;;;1.30;;
28834;SDS011;15969;51.536;11.884;2023-01-13T17:11:52;8.27;;;1.73;;
28834;SDS011;15969;51.536;11.884;2023-01-13T17:14:19;4.40;;;1.70;;
28834;SDS011;15969;51.536;11.884;2023-01-13T17:16:48;7.70;;;1.47;;
28834;SDS011;15969;51.536;11.884;2023-01-13T17:19:16;3.90;;;1.20;;
28834;SDS011;15969;51.536;11.884;2023-01-13T17:21:42;3.97;;;1.50;;
28834;SDS011;15969;51.536;11.884;2023-01-13T17:24:07;3.70;;;1.30;;
28834;SDS011;15969;51.536;11.884;2023-01-13T17:26:35;4.50;;;1.27;;